Time;durP1;ratioP1;P1;durP2;ratioP2;P2;SDS_P1;SDS_P2;PMS_P1;PMS_P2;Temp;Humidity;BMP_temperature;BMP_pressure;BME280_temperature;BME280_humidity;BME280_pressure;Samples;Min_cycle;Max_cycle;Signal;HPM_P1;HPM_P2
2022/01/06 00:00:39;;;;;;;1.52;1.42;;;22.40;33.70;;;;;;5149669;27;46927;-17
2022/01/06 00:03:06;;;;;;;1.95;1.40;;;22.50;33.70;;;;;;5149897;27;46793;-17
2022/01/06 00:05:33;;;;;;;3.25;1.30;;;22.40;33.70;;;;;;5149618;27;46890;-17
2022/01/06 00:08:01;;;;;;;2.70;1.30;;;22.50;33.80;;;;;;5149703;27;48893;-18
2022/01/06 00:10:29;;;;;;;1.42;1.27;;;22.50;33.70;;;;;;5149310;27;47132;-18
2022/01/06 00:13:08;;;;;;;1.35;1.20;;;22.50;33.70;;;;;;5149612;27;46895;-17
2022/01/06 00:15:40;;;;;;;2.03;1.40;;;22.50;34.30;;;;;;5149622;27;46886;-17
2022/01/06 00:18:18;;;;;;;2.42;1.30;;;22.50;33.70;;;;;;5149548;27;47886;-17
2022/01/06 00:23:33;;;;;;;1.83;1.33;;;22.50;33.70;;;;;;5146760;27;47037;-17
2022/01/06 00:26:00;;;;;;;1.83;1.30;;;22.50;33.70;;;;;;5148814;27;47126;-17
2022/01/06 00:28:28;;;;;;;2.85;1.50;;;22.50;33.80;;;;;;5149386;27;48757;-18
2022/01/06 00:30:55;;;;;;;2.03;1.33;;;22.40;33.70;;;;;;5149064;27;46844;-17
2022/01/06 00:33:21;;;;;;;2.88;1.55;;;22.40;33.70;;;;;;5149296;27;46819;-17
2022/01/06 00:35:48;;;;;;;1.48;1.20;;;22.40;33.70;;;;;;5149263;27;46999;-17
2022/01/06 00:38:15;;;;;;;2.60;1.33;;;22.50;33.70;;;;;;5148822;27;47934;-17
2022/01/06 00:40:41;;;;;;;2.65;1.55;;;22.50;33.70;;;;;;5149113;27;47414;-17
2022/01/06 00:43:08;;;;;;;2.03;1.30;;;22.40;33.70;;;;;;5148891;27;46848;-17
2022/01/06 00:45:37;;;;;;;1.50;1.30;;;22.40;33.80;;;;;;5148880;27;46819;-17
2022/01/06 00:48:05;;;;;;;2.17;1.58;;;22.40;33.70;;;;;;5148953;27;47024;-17
2022/01/06 00:50:31;;;;;;;2.08;1.25;;;22.30;33.70;;;;;;5148633;27;46901;-17
2022/01/06 00:53:00;;;;;;;2.25;1.17;;;22.40;33.70;;;;;;5149140;27;46749;-17
2022/01/06 00:55:26;;;;;;;1.70;1.20;;;22.30;33.80;;;;;;5148738;27;46913;-17
2022/01/06 00:57:55;;;;;;;2.15;1.20;;;22.30;33.80;;;;;;5148826;27;49070;-17
2022/01/06 01:00:23;;;;;;;2.78;1.50;;;22.30;33.80;;;;;;5148437;27;46890;-17
2022/01/06 01:02:51;;;;;;;1.83;1.40;;;22.40;33.80;;;;;;5148592;27;46901;-17
2022/01/06 01:05:17;;;;;;;2.08;1.20;;;22.30;33.80;;;;;;5148956;27;47017;-17
2022/01/06 01:07:44;;;;;;;2.00;1.20;;;22.40;33.80;;;;;;5148438;27;48118;-17
2022/01/06 01:10:11;;;;;;;1.58;1.30;;;22.40;33.70;;;;;;5148191;27;46831;-17
2022/01/06 01:12:37;;;;;;;2.28;1.20;;;22.40;33.70;;;;;;5148713;27;46893;-17
2022/01/06 01:15:07;;;;;;;1.48;1.17;;;22.40;33.70;;;;;;5148554;27;46912;-17
2022/01/06 01:17:34;;;;;;;1.88;1.27;;;22.40;33.80;;;;;;5148568;27;49018;-18
2022/01/06 01:20:02;;;;;;;1.80;1.20;;;22.50;33.80;;;;;;5148224;27;46963;-17
2022/01/06 01:22:29;;;;;;;2.47;1.20;;;22.40;33.70;;;;;;5148509;27;46833;-17
2022/01/06 01:24:55;;;;;;;1.52;1.15;;;22.50;33.70;;;;;;5148534;27;46920;-17
2022/01/06 01:27:23;;;;;;;1.60;1.25;;;22.40;33.60;;;;;;5148148;27;48120;-17
2022/01/06 01:29:58;;;;;;;1.95;1.27;;;22.40;33.60;;;;;;5148368;27;46896;-17
2022/01/06 01:32:30;;;;;;;1.92;1.20;;;22.50;33.70;;;;;;5148238;27;46874;-17
2022/01/06 01:35:00;;;;;;;1.90;1.13;;;22.50;33.70;;;;;;5148520;27;46863;-17
2022/01/06 01:37:28;;;;;;;1.52;1.20;;;22.50;33.70;;;;;;5148243;27;49207;-17
2022/01/06 01:39:55;;;;;;;2.28;1.30;;;22.40;33.70;;;;;;5148189;27;46800;-17
2022/01/06 01:42:22;;;;;;;1.67;1.02;;;22.50;33.80;;;;;;5147893;27;46806;-17
2022/01/06 01:44:50;;;;;;;1.73;1.45;;;22.40;33.60;;;;;;5148501;27;47311;-17
2022/01/06 01:47:27;;;;;;;1.65;1.27;;;22.50;33.70;;;;;;5148015;27;47868;-17
2022/01/06 01:50:09;;;;;;;2.25;1.30;;;22.40;33.70;;;;;;5147768;27;47502;-17
2022/01/06 01:52:37;;;;;;;1.20;1.10;;;22.40;33.70;;;;;;5148105;27;46855;-17
2022/01/06 01:55:05;;;;;;;1.23;1.10;;;22.40;33.80;;;;;;5148182;27;47223;-17
2022/01/06 01:57:31;;;;;;;1.23;1.08;;;22.40;33.70;;;;;;5147330;27;47989;-17
2022/01/06 01:59:58;;;;;;;1.67;1.20;;;22.40;33.70;;;;;;5147716;27;46909;-17
2022/01/06 02:02:25;;;;;;;1.45;1.25;;;22.40;33.70;;;;;;5147558;27;46925;-18
2022/01/06 02:04:52;;;;;;;1.42;1.10;;;22.40;33.80;;;;;;5147991;27;46994;-17
2022/01/06 02:07:19;;;;;;;1.85;1.33;;;22.30;33.70;;;;;;5147423;27;48157;-18
2022/01/06 02:09:47;;;;;;;1.38;1.10;;;22.40;33.80;;;;;;5147675;27;47128;-17
2022/01/06 02:12:23;;;;;;;1.65;1.20;;;22.40;33.80;;;;;;5147518;27;46909;-17
2022/01/06 02:14:50;;;;;;;1.10;1.00;;;22.30;33.80;;;;;;5147851;27;46975;-17
2022/01/06 02:17:17;;;;;;;1.23;1.13;;;22.30;33.80;;;;;;5147492;27;48115;-18
2022/01/06 02:19:53;;;;;;;2.25;1.30;;;22.30;33.80;;;;;;5147386;27;46861;-18
2022/01/06 02:22:19;;;;;;;1.67;1.30;;;22.40;33.90;;;;;;5147774;27;46811;-17
2022/01/06 02:24:46;;;;;;;1.35;1.23;;;22.40;33.90;;;;;;5147529;27;47152;-17
2022/01/06 02:27:13;;;;;;;2.70;1.40;;;22.30;33.80;;;;;;5147418;27;47704;-17
2022/01/06 02:29:40;;;;;;;1.67;0.90;;;22.40;33.80;;;;;;5147483;27;46956;-18
2022/01/06 02:32:08;;;;;;;1.15;1.02;;;22.40;33.80;;;;;;5146956;27;47134;-17
2022/01/06 02:34:35;;;;;;;1.13;1.02;;;22.40;33.80;;;;;;5147409;27;46912;-17
2022/01/06 02:37:04;;;;;;;2.03;1.15;;;22.40;33.80;;;;;;5146806;27;47983;-17
2022/01/06 02:39:31;;;;;;;1.20;0.95;;;22.40;33.80;;;;;;5147346;27;47012;-17
2022/01/06 02:41:57;;;;;;;1.08;0.98;;;22.40;33.70;;;;;;5147358;27;46826;-17
2022/01/06 02:44:25;;;;;;;2.38;1.42;;;22.50;33.80;;;;;;5147277;27;47099;-17
2022/01/06 02:46:52;;;;;;;1.63;1.10;;;22.40;33.70;;;;;;5147051;27;49116;-17
2022/01/06 02:49:19;;;;;;;2.22;1.00;;;22.40;33.70;;;;;;5147198;27;46827;-18
2022/01/06 02:51:45;;;;;;;1.33;1.00;;;22.40;33.70;;;;;;5146995;27;47048;-17
2022/01/06 02:54:14;;;;;;;1.90;1.17;;;22.40;33.70;;;;;;5147454;27;46856;-17
2022/01/06 02:56:42;;;;;;;2.15;1.00;;;22.50;33.70;;;;;;5146854;27;47949;-17
2022/01/06 02:59:09;;;;;;;1.10;1.00;;;22.50;33.80;;;;;;5147312;27;46944;-18
2022/01/06 03:01:39;;;;;;;1.27;0.98;;;22.50;33.80;;;;;;5146885;27;46908;-17
2022/01/06 03:04:06;;;;;;;2.33;1.00;;;22.40;33.80;;;;;;5147227;27;47205;-17
2022/01/06 03:06:32;;;;;;;1.25;0.95;;;22.40;33.70;;;;;;5146893;27;47242;-18
2022/01/06 03:08:59;;;;;;;1.83;1.10;;;22.50;33.80;;;;;;5148867;27;47455;-18
2022/01/06 03:11:27;;;;;;;1.58;1.00;;;22.40;33.70;;;;;;5150157;27;47000;-17
2022/01/06 03:13:54;;;;;;;0.82;0.80;;;22.40;33.80;;;;;;5150857;27;46933;-17
2022/01/06 03:16:21;;;;;;;1.10;0.82;;;22.40;33.80;;;;;;5149940;27;47826;-17
2022/01/06 03:18:47;;;;;;;1.00;0.90;;;22.40;33.70;;;;;;5150241;27;46900;-17
2022/01/06 03:21:14;;;;;;;1.15;0.90;;;22.40;33.70;;;;;;5150510;27;46985;-17
2022/01/06 03:23:41;;;;;;;2.17;1.13;;;22.40;33.70;;;;;;5150719;27;47285;-17
2022/01/06 03:26:08;;;;;;;3.33;1.23;;;22.40;33.80;;;;;;5149695;27;46917;-17
2022/01/06 03:28:36;;;;;;;1.50;1.05;;;22.30;33.70;;;;;;5150072;27;46746;-17
2022/01/06 03:31:02;;;;;;;1.40;0.93;;;22.40;33.70;;;;;;5149981;27;47038;-17
2022/01/06 03:33:29;;;;;;;1.35;1.00;;;22.30;33.70;;;;;;5150360;27;47187;-18
2022/01/06 03:35:56;;;;;;;1.88;0.98;;;22.30;33.80;;;;;;5149995;27;47891;-17
2022/01/06 03:38:22;;;;;;;1.08;0.98;;;22.30;33.80;;;;;;5150189;27;46880;-18
2022/01/06 03:40:49;;;;;;;1.70;1.00;;;22.30;33.90;;;;;;5150096;27;46757;-18
2022/01/06 03:43:16;;;;;;;1.65;1.17;;;22.30;33.80;;;;;;5149948;27;47284;-17
2022/01/06 03:45:44;;;;;;;1.85;1.10;;;22.30;33.80;;;;;;5149909;27;47986;-17
2022/01/06 03:48:11;;;;;;;1.98;0.90;;;22.30;33.80;;;;;;5150076;27;47290;-17
2022/01/06 03:50:37;;;;;;;1.33;0.98;;;22.40;33.90;;;;;;5150013;27;46998;-17
2022/01/06 03:53:04;;;;;;;1.48;1.10;;;22.30;33.80;;;;;;5150143;27;46869;-16
2022/01/06 03:55:31;;;;;;;1.10;1.00;;;22.40;33.80;;;;;;5149328;27;47885;-17
2022/01/06 03:57:57;;;;;;;1.50;1.08;;;22.40;33.90;;;;;;5149758;27;46874;-17
2022/01/06 04:00:24;;;;;;;1.02;1.02;;;22.40;33.80;;;;;;5149511;27;46896;-17
2022/01/06 04:02:52;;;;;;;1.25;0.90;;;22.40;33.70;;;;;;5149968;27;47045;-17
2022/01/06 04:05:19;;;;;;;2.17;1.08;;;22.40;33.70;;;;;;5149416;27;48100;-17
2022/01/06 04:07:46;;;;;;;1.27;1.05;;;22.40;33.70;;;;;;5149687;27;47412;-18
2022/01/06 04:10:12;;;;;;;1.00;0.93;;;22.40;33.70;;;;;;5149642;27;46952;-17
2022/01/06 04:12:39;;;;;;;1.08;0.80;;;22.50;33.80;;;;;;5149773;27;47088;-17
2022/01/06 04:15:09;;;;;;;1.40;0.95;;;22.40;33.70;;;;;;5149325;27;46902;-17
2022/01/06 04:17:35;;;;;;;1.88;0.90;;;22.50;33.80;;;;;;5149493;27;46894;-17
2022/01/06 04:20:04;;;;;;;1.40;0.95;;;22.50;33.80;;;;;;5149376;27;46793;-17
2022/01/06 04:22:31;;;;;;;1.55;0.98;;;22.40;33.80;;;;;;5149367;27;47079;-17
2022/01/06 04:24:58;;;;;;;1.52;0.90;;;22.40;33.80;;;;;;5149146;27;47086;-17
2022/01/06 04:27:24;;;;;;;1.17;1.00;;;22.40;33.70;;;;;;5149428;27;47192;-18
2022/01/06 04:29:51;;;;;;;1.48;1.05;;;22.40;33.80;;;;;;5149392;27;46845;-17
2022/01/06 04:32:18;;;;;;;1.50;0.80;;;22.40;33.70;;;;;;5149395;27;47294;-17
2022/01/06 04:34:44;;;;;;;1.67;0.93;;;22.40;33.80;;;;;;5149131;27;48124;-18
2022/01/06 04:37:12;;;;;;;1.58;0.90;;;22.40;33.80;;;;;;5149132;27;46971;-17
2022/01/06 04:39:39;;;;;;;2.58;1.10;;;22.40;33.80;;;;;;5149019;27;46850;-17
2022/01/06 04:42:06;;;;;;;1.77;1.25;;;22.30;33.80;;;;;;5148941;27;46786;-17
2022/01/06 04:44:33;;;;;;;1.35;0.80;;;22.40;33.80;;;;;;5149115;27;49265;-17
2022/01/06 04:47:00;;;;;;;1.92;1.17;;;22.30;33.80;;;;;;5149004;27;47170;-17
2022/01/06 04:49:27;;;;;;;1.83;1.05;;;22.30;33.80;;;;;;5149270;27;46966;-17
2022/01/06 04:51:54;;;;;;;0.95;0.80;;;22.30;33.80;;;;;;5148743;27;46887;-17
2022/01/06 04:54:22;;;;;;;1.38;1.02;;;22.30;33.80;;;;;;5149187;27;49085;-17
2022/01/06 04:56:48;;;;;;;1.10;0.95;;;22.30;33.90;;;;;;5148872;27;46867;-17
2022/01/06 04:59:15;;;;;;;1.90;1.10;;;22.40;33.90;;;;;;5148632;27;46902;-17
2022/01/06 05:01:42;;;;;;;1.42;1.00;;;22.40;33.90;;;;;;5148897;27;46803;-17
2022/01/06 05:04:08;;;;;;;2.10;1.02;;;22.40;33.90;;;;;;5148834;27;46978;-17
2022/01/06 05:06:35;;;;;;;1.95;0.90;;;22.40;33.90;;;;;;5148801;27;47400;-17
2022/01/06 05:09:02;;;;;;;1.33;1.10;;;22.40;33.90;;;;;;5148911;27;46901;-16
2022/01/06 05:11:30;;;;;;;1.48;1.00;;;22.40;33.80;;;;;;5148643;27;46918;-18
2022/01/06 05:13:57;;;;;;;2.10;0.90;;;22.40;33.80;;;;;;5148492;27;46899;-18
2022/01/06 05:16:23;;;;;;;2.00;1.20;;;22.40;33.80;;;;;;5148415;27;46812;-17
2022/01/06 05:18:50;;;;;;;1.73;1.00;;;22.50;33.90;;;;;;5148870;27;47013;-17
2022/01/06 05:21:17;;;;;;;0.75;0.73;;;22.40;33.70;;;;;;5148167;27;47345;-17
2022/01/06 05:23:43;;;;;;;1.75;0.77;;;22.50;33.80;;;;;;5148585;27;47920;-17
2022/01/06 05:26:10;;;;;;;1.98;1.08;;;22.50;33.70;;;;;;5147454;27;46904;-17
2022/01/06 05:28:38;;;;;;;0.80;0.70;;;22.50;33.80;;;;;;5148186;27;46930;-17
2022/01/06 05:31:05;;;;;;;1.80;1.10;;;22.40;33.80;;;;;;5147763;27;47008;-17
2022/01/06 05:33:32;;;;;;;0.93;0.80;;;22.50;33.80;;;;;;5148216;27;48879;-17
2022/01/06 05:35:58;;;;;;;1.50;0.90;;;22.50;33.80;;;;;;5148106;27;47086;-17
2022/01/06 05:38:25;;;;;;;1.33;0.85;;;22.40;33.80;;;;;;5148046;27;46859;-17
2022/01/06 05:40:52;;;;;;;1.58;1.00;;;22.40;33.80;;;;;;5147965;27;46891;-17
2022/01/06 05:43:20;;;;;;;1.38;0.98;;;22.50;33.90;;;;;;5148160;27;48649;-17
2022/01/06 05:45:48;;;;;;;1.35;1.00;;;22.40;33.90;;;;;;5147836;27;46897;-17
2022/01/06 05:48:14;;;;;;;1.05;0.70;;;22.40;33.80;;;;;;5148277;27;46878;-17
2022/01/06 05:50:41;;;;;;;1.50;1.02;;;22.50;33.80;;;;;;5148147;27;46890;-17
2022/01/06 05:53:08;;;;;;;1.08;0.90;;;22.40;33.80;;;;;;5147688;27;48145;-17
2022/01/06 05:55:35;;;;;;;1.30;0.80;;;22.40;33.80;;;;;;5147850;27;46925;-17
2022/01/06 05:58:02;;;;;;;1.08;0.80;;;22.40;33.80;;;;;;5148213;27;46935;-17
2022/01/06 06:00:28;;;;;;;1.17;0.85;;;22.40;33.80;;;;;;5147669;27;47278;-17
2022/01/06 06:02:56;;;;;;;0.95;0.80;;;22.40;33.80;;;;;;5147654;27;47063;-17
2022/01/06 06:05:23;;;;;;;1.58;0.80;;;22.40;33.80;;;;;;5147782;27;47483;-17
2022/01/06 06:07:50;;;;;;;1.15;1.02;;;22.40;33.90;;;;;;5147883;27;47296;-16
2022/01/06 06:10:17;;;;;;;1.45;0.95;;;22.40;33.90;;;;;;5147428;27;47233;-17
2022/01/06 06:12:43;;;;;;;1.55;0.80;;;22.40;33.90;;;;;;5147513;27;48863;-17
2022/01/06 06:15:10;;;;;;;1.35;1.00;;;22.40;33.90;;;;;;5147502;27;47263;-17
2022/01/06 06:17:37;;;;;;;2.33;0.77;;;22.30;33.80;;;;;;5146894;27;46999;-18
2022/01/06 06:20:06;;;;;;;1.85;1.30;;;22.40;33.90;;;;;;5147866;27;46900;-17
2022/01/06 06:22:32;;;;;;;1.08;0.90;;;22.40;33.90;;;;;;5147286;27;47830;-17
2022/01/06 06:24:59;;;;;;;1.67;0.73;;;22.40;33.90;;;;;;5147322;27;46908;-17
2022/01/06 06:27:26;;;;;;;1.00;0.90;;;22.40;33.80;;;;;;5147726;27;46939;-17
2022/01/06 06:29:53;;;;;;;1.55;0.90;;;22.40;33.80;;;;;;5147753;27;47134;-17
2022/01/06 06:32:19;;;;;;;0.70;0.63;;;22.50;33.80;;;;;;5147131;27;46835;-17
2022/01/06 06:34:46;;;;;;;1.15;0.80;;;22.40;33.80;;;;;;5147207;27;46867;-17
2022/01/06 06:37:14;;;;;;;1.00;0.90;;;22.40;33.90;;;;;;5147557;27;47067;-17
2022/01/06 06:39:41;;;;;;;1.23;0.80;;;22.50;33.90;;;;;;5147337;27;47227;-18
2022/01/06 06:42:08;;;;;;;1.00;0.80;;;22.50;33.90;;;;;;5147894;27;48125;-17
2022/01/06 06:44:35;;;;;;;0.80;0.80;;;22.40;34.00;;;;;;5151181;27;47434;-17
2022/01/06 06:47:01;;;;;;;0.95;0.90;;;22.40;34.40;;;;;;5150867;27;47010;-17
2022/01/06 06:49:29;;;;;;;1.23;0.82;;;22.40;33.90;;;;;;5150966;27;46853;-18
2022/01/06 06:51:55;;;;;;;1.65;1.08;;;22.50;33.90;;;;;;5150650;27;47046;-17
2022/01/06 06:54:25;;;;;;;0.65;0.65;;;22.40;33.80;;;;;;5151064;27;47220;-17
2022/01/06 06:56:51;;;;;;;1.00;0.95;;;22.50;33.80;;;;;;5150791;27;47098;-17
2022/01/06 06:59:18;;;;;;;1.23;1.00;;;22.50;33.90;;;;;;5150801;27;47232;-17
2022/01/06 07:01:45;;;;;;;0.88;0.80;;;22.50;33.90;;;;;;5150756;27;48139;-17
2022/01/06 07:04:11;;;;;;;1.73;0.90;;;22.40;33.90;;;;;;5150482;27;46914;-17
2022/01/06 07:06:38;;;;;;;1.35;1.00;;;22.40;33.80;;;;;;5150696;27;46871;-17
2022/01/06 07:09:05;;;;;;;1.17;0.70;;;22.40;33.90;;;;;;5151009;27;46898;-17
2022/01/06 07:11:33;;;;;;;0.93;0.70;;;22.40;33.90;;;;;;5149986;27;48865;-17
2022/01/06 07:14:00;;;;;;;1.40;0.75;;;22.40;33.90;;;;;;5150244;27;46886;-17
2022/01/06 07:16:27;;;;;;;0.90;0.90;;;22.30;33.90;;;;;;5150227;27;46979;-17
2022/01/06 07:18:53;;;;;;;1.83;1.08;;;22.40;33.90;;;;;;5150535;27;47246;-17
2022/01/06 07:21:20;;;;;;;1.10;0.77;;;22.30;33.90;;;;;;5150194;27;47046;-17
2022/01/06 07:23:47;;;;;;;1.08;0.90;;;22.30;33.90;;;;;;5150223;27;46882;-17
2022/01/06 07:26:14;;;;;;;1.10;0.80;;;22.30;33.90;;;;;;5150010;27;46874;-17
2022/01/06 07:28:42;;;;;;;0.95;0.80;;;22.30;33.90;;;;;;5150389;27;47094;-17
2022/01/06 07:31:08;;;;;;;1.10;0.75;;;22.30;33.90;;;;;;5150252;27;48162;-17
2022/01/06 07:33:35;;;;;;;1.75;0.90;;;22.30;33.90;;;;;;5150185;27;47021;-18
2022/01/06 07:36:02;;;;;;;1.85;0.95;;;22.40;34.00;;;;;;5149798;27;46796;-17
2022/01/06 07:38:28;;;;;;;1.13;0.70;;;22.40;33.90;;;;;;5150467;27;47106;-17
2022/01/06 07:40:55;;;;;;;1.75;0.90;;;22.40;33.90;;;;;;5150016;27;48123;-17
2022/01/06 07:43:22;;;;;;;0.75;0.70;;;22.40;33.90;;;;;;5150162;27;47211;-17
2022/01/06 07:45:50;;;;;;;0.85;0.70;;;22.40;33.90;;;;;;5150047;27;46846;-17
2022/01/06 07:48:19;;;;;;;0.90;0.90;;;22.40;33.90;;;;;;5150294;27;47342;-17
2022/01/06 07:50:47;;;;;;;1.73;0.90;;;22.40;33.90;;;;;;5149817;27;47913;-17
2022/01/06 07:53:13;;;;;;;0.95;0.90;;;22.50;33.90;;;;;;5149602;27;46866;-18
2022/01/06 07:55:40;;;;;;;1.90;0.82;;;22.40;33.80;;;;;;5149126;27;46812;-17
2022/01/06 07:58:07;;;;;;;1.88;0.90;;;22.40;33.90;;;;;;5150072;27;47228;-18
2022/01/06 08:00:34;;;;;;;1.85;0.88;;;22.40;33.90;;;;;;5149470;27;47901;-18
2022/01/06 08:03:02;;;;;;;0.82;0.80;;;22.50;33.90;;;;;;5149462;27;46808;-17
2022/01/06 08:05:28;;;;;;;1.48;0.85;;;22.40;33.90;;;;;;5149370;27;47017;-17
2022/01/06 08:07:55;;;;;;;0.95;0.82;;;22.40;33.90;;;;;;5149819;27;47105;-18
2022/01/06 08:10:22;;;;;;;1.15;0.95;;;22.40;33.90;;;;;;5149407;27;49075;-17
2022/01/06 08:12:49;;;;;;;0.73;0.73;;;22.40;33.90;;;;;;5149717;27;46965;-17
2022/01/06 08:15:15;;;;;;;0.98;0.70;;;22.40;33.90;;;;;;5149271;27;46782;-17
2022/01/06 08:17:42;;;;;;;1.13;0.90;;;22.50;33.90;;;;;;5149618;27;47085;-17
2022/01/06 08:20:12;;;;;;;1.10;0.95;;;22.40;33.90;;;;;;5149403;27;48015;-17
2022/01/06 08:22:38;;;;;;;1.90;0.98;;;22.40;33.90;;;;;;5149707;27;46927;-17
2022/01/06 08:25:06;;;;;;;1.60;0.90;;;22.40;33.90;;;;;;5149500;27;46815;-17
2022/01/06 08:27:33;;;;;;;0.98;0.88;;;22.40;33.90;;;;;;5149792;27;46928;-17
2022/01/06 08:30:00;;;;;;;0.95;0.90;;;22.40;33.90;;;;;;5149354;27;47900;-17
2022/01/06 08:32:26;;;;;;;1.95;1.00;;;22.40;33.90;;;;;;5149331;27;46958;-17
2022/01/06 08:34:53;;;;;;;1.45;1.15;;;22.40;33.90;;;;;;5149289;27;46800;-17
2022/01/06 08:37:21;;;;;;;0.93;0.93;;;22.40;33.90;;;;;;5149477;27;47163;-17
2022/01/06 08:39:48;;;;;;;2.35;0.90;;;22.40;33.90;;;;;;5149025;27;46967;-17
2022/01/06 08:42:14;;;;;;;1.13;0.80;;;22.40;33.90;;;;;;5149669;27;46867;-18
2022/01/06 08:44:41;;;;;;;1.98;1.00;;;22.40;33.90;;;;;;5149250;27;46998;-17
2022/01/06 08:47:08;;;;;;;1.13;1.02;;;22.40;33.90;;;;;;5149061;27;46866;-17
2022/01/06 08:49:35;;;;;;;1.00;0.90;;;22.40;33.90;;;;;;5148914;27;48223;-17
2022/01/06 08:52:02;;;;;;;1.45;1.20;;;22.40;33.90;;;;;;5148850;27;47283;-17
2022/01/06 08:54:30;;;;;;;1.17;1.00;;;22.40;33.90;;;;;;5148946;27;46810;-18
2022/01/06 08:56:57;;;;;;;0.98;0.80;;;22.50;34.00;;;;;;5148943;27;47287;-17
2022/01/06 08:59:24;;;;;;;1.10;1.00;;;22.40;33.90;;;;;;5148969;27;49040;-17
2022/01/06 09:01:51;;;;;;;1.63;1.13;;;22.50;33.90;;;;;;5148593;27;47553;-18
2022/01/06 09:04:20;;;;;;;1.05;0.98;;;22.50;33.90;;;;;;5149071;27;47074;-17
2022/01/06 09:06:48;;;;;;;2.10;0.88;;;22.50;34.00;;;;;;5147611;27;47445;-17
2022/01/06 09:09:14;;;;;;;1.42;1.00;;;22.50;33.90;;;;;;5148652;27;49126;-17
2022/01/06 09:11:42;;;;;;;1.42;1.20;;;22.50;33.90;;;;;;5148511;27;46844;-17
2022/01/06 09:14:09;;;;;;;2.10;1.00;;;22.50;33.90;;;;;;5148389;27;46868;-17
2022/01/06 09:16:37;;;;;;;0.80;0.80;;;22.50;33.90;;;;;;5148384;27;47267;-17
2022/01/06 09:19:04;;;;;;;1.10;0.82;;;22.50;33.90;;;;;;5148369;27;47940;-18
2022/01/06 09:21:30;;;;;;;1.05;0.90;;;22.50;33.90;;;;;;5148286;27;46750;-17
2022/01/06 09:23:59;;;;;;;1.77;1.00;;;22.60;33.90;;;;;;5148605;27;46937;-17
2022/01/06 09:26:26;;;;;;;1.30;1.20;;;22.60;33.90;;;;;;5147587;27;46893;-17
2022/01/06 09:28:54;;;;;;;1.67;1.10;;;22.50;33.80;;;;;;5148136;27;47063;-17
2022/01/06 09:31:21;;;;;;;1.25;1.08;;;22.50;33.90;;;;;;5147929;27;46994;-17
2022/01/06 09:33:47;;;;;;;1.13;1.00;;;22.50;33.90;;;;;;5148331;27;46941;-17
2022/01/06 09:36:14;;;;;;;1.45;1.10;;;22.50;33.90;;;;;;5148176;27;46850;-17
2022/01/06 09:38:41;;;;;;;1.10;1.00;;;22.50;33.90;;;;;;5148017;27;48186;-17
2022/01/06 09:41:10;;;;;;;1.13;1.00;;;22.50;33.90;;;;;;5147792;27;46854;-17
2022/01/06 09:43:36;;;;;;;1.55;1.10;;;22.50;33.90;;;;;;5148285;27;46755;-17
2022/01/06 09:46:06;;;;;;;0.98;0.93;;;22.40;34.00;;;;;;5147993;27;46864;-17
2022/01/06 09:48:32;;;;;;;1.80;1.13;;;22.50;34.00;;;;;;5147831;27;48081;-17
2022/01/06 09:50:59;;;;;;;1.35;1.13;;;22.50;34.00;;;;;;5147971;27;46842;-17
2022/01/06 09:53:27;;;;;;;1.20;0.88;;;22.40;34.00;;;;;;5148141;27;46862;-17
2022/01/06 09:55:54;;;;;;;1.08;0.93;;;22.40;34.00;;;;;;5148158;27;46921;-17
2022/01/06 09:58:23;;;;;;;1.17;1.00;;;22.50;34.00;;;;;;5147585;27;47888;-17
2022/01/06 10:00:50;;;;;;;1.67;1.20;;;22.50;34.00;;;;;;5147940;27;46996;-17
2022/01/06 10:03:18;;;;;;;1.30;1.20;;;22.50;34.00;;;;;;5147977;27;46904;-17
2022/01/06 10:05:46;;;;;;;2.08;1.05;;;22.50;34.00;;;;;;5147947;27;46881;-17
2022/01/06 10:08:13;;;;;;;1.50;1.10;;;22.50;34.00;;;;;;5147806;27;48236;-18
2022/01/06 10:10:41;;;;;;;2.22;1.17;;;22.50;33.90;;;;;;5147332;27;46883;-17
2022/01/06 10:13:09;;;;;;;1.27;1.10;;;22.60;34.00;;;;;;5147507;27;46887;-17
2022/01/06 10:15:37;;;;;;;1.17;0.90;;;22.60;34.00;;;;;;5147620;27;47184;-17
2022/01/06 10:18:13;;;;;;;1.00;0.90;;;22.60;34.00;;;;;;5146829;27;47833;-17
2022/01/06 10:20:41;;;;;;;1.20;1.10;;;22.60;33.90;;;;;;5147305;27;46984;-17
2022/01/06 10:23:13;;;;;;;1.05;0.98;;;22.60;33.90;;;;;;5147175;27;46888;-20
2022/01/06 10:25:46;;;;;;;1.58;1.20;;;22.60;33.80;;;;;;5143843;27;47568;-22
2022/01/06 10:28:15;;;;;;;1.20;1.10;;;22.60;33.90;;;;;;5145940;27;47058;-17
2022/01/06 10:30:47;;;;;;;1.20;1.10;;;22.60;34.00;;;;;;5145704;27;46879;-17
2022/01/06 10:33:15;;;;;;;1.30;1.02;;;22.60;34.00;;;;;;5145732;27;47213;-17
2022/01/06 10:35:43;;;;;;;1.77;1.30;;;22.60;34.00;;;;;;5146075;27;47248;-17
2022/01/06 10:38:10;;;;;;;1.73;1.10;;;22.60;33.90;;;;;;5145850;27;48739;-17
2022/01/06 10:40:38;;;;;;;0.90;0.90;;;22.60;33.90;;;;;;5145440;27;47003;-17
2022/01/06 10:43:06;;;;;;;1.58;1.20;;;22.60;34.00;;;;;;5147086;27;46945;-17
2022/01/06 10:45:33;;;;;;;2.63;1.20;;;22.60;34.00;;;;;;5147007;27;46909;-17
2022/01/06 10:48:02;;;;;;;1.73;1.17;;;22.60;34.00;;;;;;5146829;27;48151;-16
2022/01/06 10:50:30;;;;;;;1.83;1.30;;;22.60;34.00;;;;;;5146614;27;46961;-17
2022/01/06 10:53:00;;;;;;;1.55;1.00;;;22.60;34.00;;;;;;5147077;27;46841;-18
2022/01/06 10:55:28;;;;;;;1.77;1.00;;;22.60;34.00;;;;;;5146932;27;46971;-17
2022/01/06 10:57:59;;;;;;;1.15;0.90;;;22.60;34.00;;;;;;5147314;27;49045;-17
2022/01/06 11:00:27;;;;;;;1.25;0.90;;;22.60;34.00;;;;;;5146644;27;46839;-17
2022/01/06 11:02:54;;;;;;;1.48;1.10;;;22.60;34.00;;;;;;5147204;27;46854;-17
2022/01/06 11:05:21;;;;;;;1.90;1.30;;;22.60;34.10;;;;;;5146427;27;46768;-17
2022/01/06 11:07:48;;;;;;;2.08;1.30;;;22.60;34.10;;;;;;5146902;27;46906;-17
2022/01/06 11:10:20;;;;;;;1.73;1.20;;;22.60;34.10;;;;;;5146753;27;46832;-17
2022/01/06 11:12:47;;;;;;;1.88;1.40;;;22.60;34.10;;;;;;5147095;27;46882;-17
2022/01/06 11:15:14;;;;;;;1.35;1.10;;;22.60;34.10;;;;;;5146967;27;47058;-17
2022/01/06 11:17:41;;;;;;;1.88;1.13;;;22.60;34.10;;;;;;5146528;27;46896;-17
2022/01/06 11:20:09;;;;;;;2.15;1.30;;;22.70;34.10;;;;;;5146601;27;47172;-17
2022/01/06 11:22:35;;;;;;;1.60;1.10;;;22.70;34.10;;;;;;5146743;27;46945;-18
2022/01/06 11:25:03;;;;;;;1.48;1.20;;;22.70;34.10;;;;;;5146757;27;47305;-17
2022/01/06 11:27:33;;;;;;;3.15;1.20;;;22.70;34.10;;;;;;5146852;27;47819;-17
2022/01/06 11:30:08;;;;;;;1.58;1.20;;;22.70;34.10;;;;;;5148621;27;46886;-17
2022/01/06 11:32:35;;;;;;;1.27;1.17;;;22.70;34.00;;;;;;5150389;27;46729;-17
2022/01/06 11:35:02;;;;;;;0.90;0.90;;;22.80;34.00;;;;;;5150086;27;47256;-17
2022/01/06 11:37:39;;;;;;;1.98;1.38;;;22.80;34.00;;;;;;5149858;27;48219;-17
2022/01/06 11:40:07;;;;;;;2.80;1.30;;;22.80;34.00;;;;;;5150150;27;46817;-17
2022/01/06 11:42:35;;;;;;;1.38;1.25;;;22.80;34.00;;;;;;5148868;27;46919;-17
2022/01/06 11:45:05;;;;;;;2.72;1.30;;;22.80;34.00;;;;;;5149949;27;47286;-17
2022/01/06 11:47:33;;;;;;;1.50;1.20;;;22.80;34.00;;;;;;5149536;27;47063;-17
2022/01/06 11:50:08;;;;;;;2.38;1.30;;;22.80;34.00;;;;;;5149781;27;46804;-17
2022/01/06 11:52:34;;;;;;;1.85;1.20;;;22.80;34.00;;;;;;5149828;27;46818;-17
2022/01/06 11:55:03;;;;;;;1.58;1.17;;;22.80;34.10;;;;;;5149595;27;46632;-17
2022/01/06 11:57:31;;;;;;;2.05;1.50;;;22.70;34.10;;;;;;5149376;27;48906;-17
2022/01/06 12:00:00;;;;;;;1.40;1.30;;;22.70;34.10;;;;;;5149682;27;47031;-17
2022/01/06 12:02:27;;;;;;;2.20;1.42;;;22.80;34.20;;;;;;5149681;27;46779;-18
2022/01/06 12:04:58;;;;;;;1.40;1.20;;;22.70;34.10;;;;;;5149592;27;47279;-17
2022/01/06 12:07:25;;;;;;;1.83;1.30;;;22.70;34.10;;;;;;5149698;27;49105;-17
2022/01/06 12:10:05;;;;;;;1.20;1.10;;;22.70;34.20;;;;;;5149501;27;46846;-17
2022/01/06 12:12:33;;;;;;;1.30;1.20;;;22.70;34.20;;;;;;5149359;27;46934;-17
2022/01/06 12:15:12;;;;;;;1.42;1.10;;;22.70;34.20;;;;;;5149528;27;46917;-17
2022/01/06 12:17:43;;;;;;;1.40;1.30;;;22.70;34.10;;;;;;5149326;27;48224;-17
2022/01/06 12:20:11;;;;;;;1.58;1.10;;;22.70;34.20;;;;;;5149193;27;46821;-17
2022/01/06 12:22:37;;;;;;;1.98;1.40;;;22.70;34.10;;;;;;5149579;27;46894;-17
2022/01/06 12:25:05;;;;;;;1.83;1.20;;;22.70;34.20;;;;;;5149431;27;46955;-18
2022/01/06 12:27:32;;;;;;;1.48;1.20;;;22.70;34.30;;;;;;5148957;27;46951;-17
2022/01/06 12:29:59;;;;;;;1.33;1.23;;;22.70;34.20;;;;;;5149421;27;47423;-17
2022/01/06 12:32:27;;;;;;;2.00;1.42;;;22.70;34.10;;;;;;5147614;27;46876;-17
2022/01/06 12:34:54;;;;;;;1.55;1.45;;;22.80;34.10;;;;;;5135123;27;47247;-17
2022/01/06 12:37:27;;;;;;;2.40;1.00;;;22.80;34.20;;;;;;5144244;27;47993;-17
2022/01/06 12:39:55;;;;;;;1.48;1.23;;;22.80;34.10;;;;;;5129151;27;47243;-17
2022/01/06 12:42:22;;;;;;;1.83;1.38;;;22.80;34.00;;;;;;5128455;27;46914;-17
2022/01/06 12:44:48;;;;;;;2.00;1.50;;;22.90;34.10;;;;;;5128126;27;47007;-17
2022/01/06 12:47:15;;;;;;;1.63;1.50;;;22.90;34.00;;;;;;5128011;27;47001;-17
2022/01/06 12:49:43;;;;;;;2.53;1.52;;;22.90;34.00;;;;;;5128147;27;46914;-16
2022/01/06 12:52:10;;;;;;;1.80;1.27;;;22.90;34.00;;;;;;5128052;27;46903;-18